createdAt,value
2022-08-30T06:16:27.175Z,25.18
2022-08-30T06:18:55.931Z,24.96
2022-08-30T06:21:29.341Z,25.24
2022-08-30T06:23:58.128Z,25.46
2022-08-30T06:26:27.252Z,25.54
2022-08-30T06:28:56.015Z,25.58
2022-08-30T06:31:25.185Z,25.76
2022-08-30T06:33:53.672Z,25.86
2022-08-30T06:36:23.425Z,25.77
2022-08-30T06:38:52.446Z,25.64
2022-08-30T06:41:45.846Z,25.90
2022-08-30T06:44:27.964Z,25.87
2022-08-30T06:46:57.705Z,25.71
2022-08-30T06:49:25.234Z,25.83
2022-08-30T06:51:53.855Z,25.77
2022-08-30T08:31:17.269Z,29.00
2022-08-30T08:33:45.419Z,28.87
2022-08-30T08:36:13.127Z,29.15
2022-08-30T08:38:40.866Z,28.84
2022-08-30T08:41:30.621Z,29.18
2022-08-30T08:43:58.875Z,29.48
2022-08-30T08:47:00.278Z,29.28
2022-08-30T08:49:28.552Z,29.31
2022-08-30T08:52:14.598Z,29.05
2022-08-30T08:55:13.460Z,29.17
2022-08-30T08:57:47.905Z,29.40
2022-08-30T09:00:21.146Z,29.21
2022-08-30T09:02:57.593Z,29.46
2022-08-30T09:05:29.461Z,29.63
2022-08-30T09:08:09.194Z,29.27
2022-08-30T09:10:50.489Z,29.19
2022-08-30T10:34:45.588Z,30.63
2022-08-30T10:37:27.207Z,30.78
2022-08-30T10:40:24.418Z,30.72
2022-08-30T10:42:56.287Z,30.30
2022-08-30T10:45:27.249Z,29.93
2022-08-30T10:48:07.168Z,30.21
2022-08-30T10:50:48.600Z,30.11
2022-08-30T10:53:22.780Z,30.10
2022-08-30T10:55:55.996Z,29.85
2022-08-30T10:58:23.872Z,29.81
2022-08-30T11:01:28.461Z,30.22
2022-08-30T11:04:14.192Z,30.30
2022-08-30T11:06:47.977Z,30.30
2022-08-30T11:09:47.829Z,30.02
2022-08-30T11:12:27.151Z,30.52
2022-08-30T11:14:55.481Z,30.32
2022-08-30T11:17:40.681Z,29.58
2022-08-30T11:29:31.792Z,31.50
2022-08-30T11:32:19.539Z,30.93
2022-08-30T11:34:46.960Z,30.70
2022-08-30T11:37:38.584Z,31.37
2022-08-30T11:40:14.243Z,32.49
2022-08-30T11:42:48.056Z,31.82
